createdAt,value
2019-03-31T00:03:16.262Z,26.47
2019-03-31T00:08:17.686Z,25.63
2019-03-31T00:13:19.041Z,27.40
2019-03-31T00:18:20.615Z,27.20
2019-03-31T00:23:21.992Z,27.20
2019-03-31T00:28:23.357Z,26.80
2019-03-31T00:33:24.791Z,26.80
2019-03-31T00:38:26.174Z,25.03
2019-03-31T00:43:27.543Z,25.17
2019-03-31T00:48:29.116Z,25.93
2019-03-31T00:53:30.455Z,23.70
2019-03-31T00:58:31.855Z,24.40
2019-03-31T01:03:34.136Z,25.93
2019-03-31T01:08:35.683Z,27.30
2019-03-31T01:13:37.375Z,26.10
2019-03-31T01:18:38.821Z,27.33
2019-03-31T01:23:40.294Z,29.93
2019-03-31T01:28:41.757Z,31.07
2019-03-31T01:33:43.541Z,30.03
2019-03-31T01:38:44.984Z,31.40
2019-03-31T01:43:46.374Z,30.57
2019-03-31T01:48:47.867Z,31.77
2019-03-31T01:53:49.313Z,30.63
2019-03-31T01:58:50.672Z,32.47
2019-03-31T02:03:52.137Z,33.03
2019-03-31T02:08:53.502Z,33.53
2019-03-31T02:13:55.038Z,32.23
2019-03-31T02:18:56.531Z,33.87
2019-03-31T02:23:57.871Z,31.83
2019-03-31T02:28:59.269Z,33.70
2019-03-31T02:34:00.718Z,32.47
2019-03-31T02:39:04.094Z,35.07
2019-03-31T02:44:05.479Z,34.87
2019-03-31T02:49:06.874Z,33.63
2019-03-31T02:54:08.405Z,35.07
2019-03-31T02:59:12.240Z,35.63
2019-03-31T03:04:17.213Z,36.97
2019-03-31T03:09:19.755Z,39.47
2019-03-31T03:14:25.269Z,39.83
2019-03-31T03:19:26.818Z,38.90
2019-03-31T03:24:28.202Z,40.90
2019-03-31T03:29:29.643Z,39.47
2019-03-31T03:34:31.047Z,40.13
2019-03-31T03:39:32.358Z,38.83
2019-03-31T03:44:33.749Z,37.70
2019-03-31T03:49:35.103Z,39.33
2019-03-31T03:54:36.466Z,38.63
2019-03-31T03:59:37.861Z,36.03
2019-03-31T04:04:39.304Z,38.33
2019-03-31T04:09:40.656Z,36.83
2019-03-31T04:14:42.040Z,37.70
2019-03-31T04:19:43.447Z,40.07
2019-03-31T04:24:44.854Z,40.43
2019-03-31T04:29:46.241Z,39.77
2019-03-31T04:34:47.601Z,41.43
2019-03-31T04:39:48.931Z,41.87
2019-03-31T04:44:50.322Z,41.10
2019-03-31T04:49:51.672Z,38.93
2019-03-31T04:54:53.072Z,38.13
2019-03-31T04:59:54.506Z,40.40
2019-03-31T05:04:55.985Z,40.20
2019-03-31T05:09:57.347Z,40.57
2019-03-31T05:14:58.726Z,40.77
2019-03-31T05:20:00.488Z,42.97
2019-03-31T05:25:03.458Z,44.07
2019-03-31T05:30:05.647Z,42.73
2019-03-31T05:35:07.420Z,40.73
2019-03-31T05:40:09.209Z,43.00
2019-03-31T05:45:10.661Z,42.93
2019-03-31T05:50:12.231Z,42.77
2019-03-31T05:55:13.594Z,43.23
2019-03-31T06:00:28.878Z,44.33
2019-03-31T06:05:30.289Z,43.27
2019-03-31T06:10:31.707Z,42.73
2019-03-31T06:15:33.200Z,43.67
2019-03-31T06:20:34.595Z,43.67
2019-03-31T06:25:36.184Z,45.93
2019-03-31T06:30:37.695Z,48.77
2019-03-31T06:35:39.081Z,45.67
2019-03-31T06:40:42.047Z,44.50
2019-03-31T06:45:43.374Z,45.83
2019-03-31T06:50:45.031Z,46.53
2019-03-31T06:55:46.457Z,43.20
2019-03-31T07:00:47.817Z,46.27
2019-03-31T07:05:49.159Z,48.77
2019-03-31T07:10:50.915Z,46.97
2019-03-31T07:15:52.243Z,46.90
2019-03-31T07:20:53.630Z,45.43
2019-03-31T07:25:54.950Z,45.33
2019-03-31T07:30:59.298Z,47.53
2019-03-31T07:35:59.555Z,45.97
2019-03-31T07:41:12.036Z,44.87
2019-03-31T07:46:04.119Z,43.97
2019-03-31T07:51:05.467Z,42.53
2019-03-31T07:56:06.787Z,44.43
2019-03-31T08:01:08.144Z,40.47
2019-03-31T08:06:09.455Z,40.50
2019-03-31T08:11:10.826Z,38.60
2019-03-31T08:16:12.142Z,36.70
2019-03-31T08:21:13.486Z,34.30
2019-03-31T08:26:14.842Z,32.47
2019-03-31T08:31:16.180Z,29.37
2019-03-31T08:36:17.502Z,28.93
2019-03-31T08:41:18.856Z,26.77
2019-03-31T08:46:20.170Z,25.43
2019-03-31T08:51:21.598Z,24.03
2019-03-31T08:56:22.957Z,23.37
2019-03-31T09:01:24.262Z,22.23
2019-03-31T09:06:25.618Z,22.00
2019-03-31T09:11:26.960Z,21.13
2019-03-31T09:16:28.311Z,21.30
2019-03-31T09:21:29.634Z,19.93
2019-03-31T09:26:30.987Z,21.37
2019-03-31T09:31:32.415Z,20.70
2019-03-31T09:36:33.765Z,19.97
2019-03-31T09:41:35.132Z,20.77
2019-03-31T09:46:36.503Z,21.70
2019-03-31T09:51:37.831Z,21.17
2019-03-31T09:56:39.175Z,22.67
2019-03-31T10:01:40.497Z,20.63
2019-03-31T10:06:42.061Z,20.90
2019-03-31T10:11:43.414Z,21.43
2019-03-31T10:16:44.738Z,20.33
2019-03-31T10:21:46.076Z,20.70
2019-03-31T10:26:47.424Z,21.53
2019-03-31T10:31:48.887Z,19.40
2019-03-31T10:36:50.292Z,19.23
2019-03-31T10:41:51.613Z,18.83
2019-03-31T10:46:53.023Z,21.40
2019-03-31T10:51:54.345Z,19.20
2019-03-31T10:56:56.398Z,17.97
2019-03-31T11:01:57.716Z,17.17
2019-03-31T11:07:03.137Z,18.70
2019-03-31T11:12:02.409Z,17.20
2019-03-31T11:17:03.738Z,19.17
2019-03-31T11:22:10.131Z,17.37
2019-03-31T11:27:11.453Z,18.03
2019-03-31T11:32:12.799Z,19.83
2019-03-31T11:37:14.289Z,16.37
2019-03-31T11:42:15.628Z,16.90
2019-03-31T11:47:16.970Z,15.90
2019-03-31T11:52:18.351Z,15.67
2019-03-31T11:57:19.689Z,16.23
2019-03-31T12:02:27.423Z,15.67
2019-03-31T12:07:28.093Z,14.57
2019-03-31T12:12:28.326Z,15.10
2019-03-31T12:17:29.739Z,15.40
2019-03-31T12:22:31.057Z,13.97
2019-03-31T12:27:32.515Z,15.23
2019-03-31T12:32:34.056Z,13.60
2019-03-31T12:37:42.196Z,13.00
2019-03-31T12:42:39.243Z,11.87
2019-03-31T12:47:40.619Z,12.43
2019-03-31T12:52:47.479Z,13.70
2019-03-31T12:57:45.195Z,12.17
2019-03-31T13:02:46.548Z,14.33
2019-03-31T13:07:56.289Z,13.07
2019-03-31T13:12:51.147Z,12.43
2019-03-31T13:17:52.501Z,13.10
2019-03-31T13:22:53.823Z,11.50
2019-03-31T13:27:55.165Z,11.57
2019-03-31T13:32:56.619Z,10.97
2019-03-31T13:38:10.418Z,11.60
2019-03-31T13:43:01.231Z,10.57
2019-03-31T13:48:02.770Z,10.10
2019-03-31T13:53:04.120Z,11.53
2019-03-31T13:58:08.239Z,10.67
2019-03-31T14:03:08.805Z,11.50
2019-03-31T14:08:24.670Z,11.83
2019-03-31T14:13:13.444Z,11.20
2019-03-31T14:18:14.762Z,11.70
2019-03-31T14:23:16.115Z,11.00
2019-03-31T14:28:17.435Z,13.03
2019-03-31T14:33:18.879Z,12.10
2019-03-31T14:38:20.239Z,12.17
2019-03-31T14:43:21.551Z,12.10
2019-03-31T14:48:22.897Z,11.43
2019-03-31T14:53:24.356Z,12.90
2019-03-31T14:58:25.694Z,12.53
2019-03-31T15:03:27.053Z,13.03
2019-03-31T15:08:29.703Z,13.53
2019-03-31T15:13:31.133Z,12.87
2019-03-31T15:18:32.477Z,12.27
2019-03-31T15:23:33.813Z,12.13
2019-03-31T15:28:36.087Z,13.37
2019-03-31T15:33:37.439Z,11.53
2019-03-31T15:38:38.761Z,12.07
2019-03-31T15:43:40.115Z,10.57
2019-03-31T15:48:42.153Z,10.53
2019-03-31T15:53:43.451Z,9.43
2019-03-31T15:58:44.799Z,9.37
2019-03-31T16:03:46.177Z,9.23
2019-03-31T16:08:48.328Z,8.20
2019-03-31T16:13:50.289Z,7.20
2019-03-31T16:18:52.377Z,8.27
2019-03-31T16:23:54.233Z,7.93
2019-03-31T16:28:56.335Z,8.50
2019-03-31T16:33:58.610Z,8.23
2019-03-31T16:39:00.750Z,7.73
2019-03-31T16:44:04.029Z,7.70
2019-03-31T16:49:05.931Z,7.37
2019-03-31T16:54:07.376Z,7.83
2019-03-31T16:59:08.823Z,6.63
2019-03-31T17:04:10.227Z,7.07
2019-03-31T17:09:12.090Z,5.97
2019-03-31T17:14:13.457Z,6.20
2019-03-31T17:19:14.839Z,6.03
2019-03-31T17:24:16.301Z,5.43
2019-03-31T17:29:17.646Z,5.27
2019-03-31T17:34:19.020Z,5.43
2019-03-31T17:39:20.358Z,5.87
2019-03-31T17:44:21.715Z,4.60
2019-03-31T17:49:23.183Z,4.87
2019-03-31T17:54:24.520Z,4.30
2019-03-31T17:59:25.908Z,4.83
2019-03-31T18:04:27.250Z,5.00
2019-03-31T18:09:28.625Z,5.07
2019-03-31T18:14:29.951Z,4.47
2019-03-31T18:19:31.324Z,4.43
2019-03-31T18:24:32.702Z,4.20
2019-03-31T18:29:34.039Z,3.60
2019-03-31T18:34:35.423Z,3.63
2019-03-31T18:39:36.769Z,3.27
2019-03-31T18:44:38.145Z,3.60
2019-03-31T18:49:39.485Z,3.00
2019-03-31T18:54:42.833Z,3.63
2019-03-31T18:59:51.948Z,3.33
2019-03-31T19:05:04.435Z,3.30
2019-03-31T19:10:07.817Z,3.60
2019-03-31T19:15:14.527Z,2.97
2019-03-31T19:20:20.769Z,3.00
2019-03-31T19:25:39.104Z,2.63
2019-03-31T19:30:44.987Z,3.10
2019-03-31T19:35:50.877Z,3.17
2019-03-31T19:41:03.940Z,2.97
2019-03-31T19:46:06.049Z,3.07
2019-03-31T19:51:21.450Z,2.87
2019-03-31T19:56:24.850Z,3.30
2019-03-31T20:01:33.887Z,2.80
2019-03-31T20:06:42.777Z,2.67
2019-03-31T20:11:51.983Z,2.97
2019-03-31T20:17:07.557Z,2.77
2019-03-31T20:22:13.461Z,3.53
2019-03-31T20:27:22.458Z,3.43
2019-03-31T20:32:25.722Z,3.70
2019-03-31T20:37:45.818Z,2.90
2019-03-31T20:42:57.872Z,3.10
2019-03-31T20:47:59.340Z,3.80
2019-03-31T20:53:00.683Z,3.17
2019-03-31T20:58:02.065Z,2.73
2019-03-31T21:03:03.520Z,3.97
2019-03-31T21:08:04.875Z,3.23
2019-03-31T21:13:06.241Z,3.27
2019-03-31T21:18:07.602Z,2.90
2019-03-31T21:23:08.955Z,2.73
2019-03-31T21:28:10.321Z,3.27
2019-03-31T21:33:11.660Z,3.27
2019-03-31T21:38:13.032Z,3.37
2019-03-31T21:43:14.368Z,3.50
2019-03-31T21:48:15.820Z,4.37
2019-03-31T21:53:17.281Z,3.60
2019-03-31T21:58:19.121Z,4.13
2019-03-31T22:03:20.578Z,4.00
2019-03-31T22:08:21.923Z,3.50
2019-03-31T22:13:23.290Z,4.07
2019-03-31T22:18:24.659Z,3.30
2019-03-31T22:23:26.001Z,3.30
2019-03-31T22:28:27.490Z,3.43
2019-03-31T22:33:28.821Z,3.37
2019-03-31T22:38:30.265Z,3.10
2019-03-31T22:43:31.648Z,3.30
2019-03-31T22:48:33.033Z,3.17
2019-03-31T22:53:34.357Z,3.20
2019-03-31T22:58:35.756Z,3.10
2019-03-31T23:03:38.019Z,2.80
2019-03-31T23:08:39.438Z,2.47
2019-03-31T23:13:40.797Z,3.10
2019-03-31T23:18:42.341Z,3.40
2019-03-31T23:23:43.716Z,2.67
2019-03-31T23:28:48.013Z,2.43
2019-03-31T23:33:49.435Z,2.83
2019-03-31T23:38:50.804Z,2.50
2019-03-31T23:43:52.176Z,2.40
2019-03-31T23:48:53.510Z,2.37
2019-03-31T23:53:54.863Z,2.33
2019-03-31T23:58:56.214Z,2.33
